createdAt,value
2022-11-29T00:01:40.902Z,8.17
2022-11-29T00:03:42.408Z,8.17
2022-11-29T00:05:43.780Z,8.18
2022-11-29T00:07:45.469Z,8.19
2022-11-29T00:09:46.906Z,8.19
2022-11-29T00:12:06.890Z,8.21
2022-11-29T00:14:10.904Z,8.20
2022-11-29T00:16:12.511Z,8.20
2022-11-29T00:18:13.969Z,8.22
2022-11-29T00:20:15.480Z,8.21
2022-11-29T00:22:16.975Z,8.21
2022-11-29T00:24:18.631Z,8.23
2022-11-29T00:26:20.231Z,8.23
2022-11-29T00:28:21.654Z,8.22
2022-11-29T00:30:23.141Z,8.24
2022-11-29T00:32:24.655Z,8.21
2022-11-29T00:34:26.224Z,8.25
2022-11-29T00:36:28.140Z,8.26
2022-11-29T00:38:29.584Z,8.26
2022-11-29T00:40:30.956Z,8.27
2022-11-29T00:42:32.320Z,8.28
2022-11-29T00:44:33.720Z,8.29
2022-11-29T00:46:35.091Z,8.29
2022-11-29T00:48:37.340Z,8.28
2022-11-29T00:50:38.739Z,8.27
2022-11-29T00:52:40.110Z,8.29
2022-11-29T00:54:41.849Z,8.30
2022-11-29T00:56:43.789Z,8.29
2022-11-29T00:58:45.205Z,8.29
2022-11-29T01:00:47.671Z,8.29
2022-11-29T01:02:49.188Z,8.31
2022-11-29T01:04:50.609Z,8.33
2022-11-29T01:06:52.960Z,8.34
2022-11-29T01:08:54.343Z,8.34
2022-11-29T01:11:10.536Z,8.33
2022-11-29T01:13:11.920Z,8.33
2022-11-29T01:15:13.327Z,8.32
2022-11-29T01:17:14.729Z,8.32
2022-11-29T01:19:16.169Z,8.27
2022-11-29T01:21:20.855Z,8.32
2022-11-29T01:23:22.237Z,8.29
2022-11-29T01:25:23.646Z,8.32
2022-11-29T01:27:25.147Z,8.32
2022-11-29T01:29:26.525Z,8.33
2022-11-29T01:31:31.466Z,8.35
2022-11-29T01:33:33.616Z,8.36
2022-11-29T01:35:34.970Z,8.33
2022-11-29T01:37:36.409Z,8.34
2022-11-29T01:39:37.861Z,8.34
2022-11-29T01:41:39.468Z,8.36
2022-11-29T01:44:04.742Z,8.37
2022-11-29T01:46:06.117Z,8.38
2022-11-29T01:48:07.661Z,8.39
2022-11-29T01:50:09.873Z,8.37
2022-11-29T01:52:16.771Z,8.37
2022-11-29T01:54:18.294Z,8.39
2022-11-29T01:56:20.399Z,8.36
2022-11-29T01:58:22.407Z,8.32
2022-11-29T02:00:23.793Z,8.36
2022-11-29T02:02:33.337Z,8.36
2022-11-29T02:04:36.990Z,8.37
2022-11-29T02:06:39.508Z,8.40
2022-11-29T02:08:43.920Z,8.38
2022-11-29T02:11:04.080Z,8.39
2022-11-29T02:13:26.898Z,8.39
2022-11-29T02:15:41.101Z,8.37
2022-11-29T02:18:10.392Z,8.37
2022-11-29T02:20:56.345Z,8.39
2022-11-29T02:23:14.717Z,8.39
2022-11-29T02:25:42.125Z,8.42
2022-11-29T02:28:15.484Z,8.43
2022-11-29T02:30:23.998Z,8.40
2022-11-29T02:32:52.884Z,8.41
2022-11-29T02:35:24.196Z,8.38
2022-11-29T02:37:56.316Z,8.40
2022-11-29T02:40:35.729Z,8.37
2022-11-29T02:42:58.261Z,8.40
2022-11-29T02:45:21.643Z,8.42
2022-11-29T02:47:43.956Z,8.42
2022-11-29T02:50:12.500Z,8.40
2022-11-29T02:52:30.842Z,8.39
2022-11-29T02:54:37.079Z,8.38
2022-11-29T02:56:53.829Z,8.42
2022-11-29T02:59:25.959Z,8.42
2022-11-29T03:01:40.216Z,8.41
2022-11-29T03:03:56.309Z,8.42
2022-11-29T03:06:04.867Z,8.43
2022-11-29T03:08:12.397Z,8.40
2022-11-29T03:10:39.139Z,8.39
2022-11-29T03:12:45.264Z,8.39
2022-11-29T03:15:05.204Z,8.36
2022-11-29T03:17:43.769Z,8.36
2022-11-29T03:20:07.808Z,8.38
2022-11-29T03:22:11.961Z,8.40
2022-11-29T03:24:23.994Z,8.40
2022-11-29T03:26:54.980Z,8.38
2022-11-29T03:29:09.334Z,8.37
2022-11-29T03:31:18.998Z,8.34
2022-11-29T03:33:30.981Z,8.29
2022-11-29T03:35:41.650Z,8.33
2022-11-29T03:37:55.303Z,8.32
2022-11-29T03:40:03.157Z,8.29
2022-11-29T03:42:11.065Z,8.28
2022-11-29T03:44:20.080Z,8.29
2022-11-29T03:46:33.573Z,8.29
2022-11-29T03:48:44.940Z,8.32
2022-11-29T03:50:54.120Z,8.32
2022-11-29T03:53:01.795Z,8.34
2022-11-29T03:55:09.311Z,8.31
2022-11-29T03:57:16.053Z,8.33
2022-11-29T03:59:36.008Z,8.33
2022-11-29T04:02:04.649Z,8.25
2022-11-29T04:04:35.755Z,8.25
2022-11-29T04:06:52.150Z,8.22
2022-11-29T04:09:31.180Z,8.18
2022-11-29T04:11:54.616Z,8.22
2022-11-29T04:14:17.599Z,8.24
2022-11-29T04:16:46.712Z,8.25
2022-11-29T04:19:15.900Z,8.14
2022-11-29T04:21:24.190Z,8.17
2022-11-29T04:24:13.518Z,8.19
2022-11-29T04:26:20.699Z,8.15
2022-11-29T04:28:40.381Z,8.18
2022-11-29T04:30:57.410Z,8.10
2022-11-29T04:33:39.587Z,8.14
2022-11-29T04:36:03.405Z,8.16
2022-11-29T04:38:41.205Z,8.18
2022-11-29T04:40:57.619Z,8.19
2022-11-29T04:43:10.950Z,8.18
2022-11-29T04:45:30.866Z,8.18
2022-11-29T04:47:52.751Z,8.14
2022-11-29T04:50:09.275Z,8.13
2022-11-29T04:52:32.219Z,8.14
2022-11-29T04:54:47.948Z,8.16
2022-11-29T04:56:54.939Z,8.15
2022-11-29T04:59:07.616Z,8.14
2022-11-29T05:01:39.912Z,8.14
2022-11-29T05:03:59.799Z,8.13
2022-11-29T05:06:23.166Z,8.14
2022-11-29T05:08:41.050Z,8.14
2022-11-29T05:11:01.151Z,8.13
2022-11-29T05:13:36.507Z,8.12
2022-11-29T05:15:59.123Z,8.13
2022-11-29T05:18:19.710Z,8.12
2022-11-29T05:21:02.963Z,8.11
2022-11-29T05:23:34.802Z,8.11
2022-11-29T05:25:55.238Z,8.10
2022-11-29T05:28:14.733Z,8.06
2022-11-29T05:30:18.020Z,8.09
2022-11-29T05:32:57.801Z,8.10
2022-11-29T05:35:17.170Z,8.10
2022-11-29T05:37:39.746Z,8.10
2022-11-29T05:40:07.512Z,8.09
2022-11-29T05:42:29.293Z,7.96
2022-11-29T05:44:39.592Z,7.99
2022-11-29T05:46:50.557Z,7.98
2022-11-29T05:49:04.664Z,7.99
2022-11-29T05:51:23.072Z,7.98
2022-11-29T05:53:30.744Z,7.96
2022-11-29T05:55:45.404Z,7.94
2022-11-29T05:57:55.569Z,7.96
2022-11-29T05:59:58.994Z,7.98
2022-11-29T06:02:06.256Z,7.96
2022-11-29T06:04:52.158Z,7.97
2022-11-29T06:07:16.093Z,7.97
2022-11-29T06:09:48.167Z,7.99
2022-11-29T06:11:55.115Z,7.96
2022-11-29T06:14:02.594Z,7.96
2022-11-29T06:16:27.081Z,7.93
2022-11-29T06:18:39.280Z,7.91
2022-11-29T06:20:51.931Z,7.91
2022-11-29T06:23:19.089Z,7.90
2022-11-29T06:25:53.223Z,7.85
2022-11-29T06:28:13.739Z,7.89
2022-11-29T06:30:20.169Z,7.89
2022-11-29T06:32:30.793Z,7.92
2022-11-29T06:35:02.350Z,7.83
2022-11-29T06:37:20.944Z,7.87
2022-11-29T06:39:22.816Z,7.86
2022-11-29T06:41:24.733Z,7.84
2022-11-29T06:43:26.568Z,7.87
2022-11-29T06:45:28.229Z,7.88
2022-11-29T06:48:03.520Z,7.90
2022-11-29T06:50:31.004Z,7.90
2022-11-29T06:52:58.334Z,7.89
2022-11-29T06:55:41.512Z,7.87
2022-11-29T06:57:57.647Z,7.90
2022-11-29T07:00:27.738Z,7.88
2022-11-29T07:02:39.649Z,7.88
2022-11-29T07:04:59.855Z,7.88
2022-11-29T07:07:01.319Z,7.83
2022-11-29T07:09:15.793Z,7.86
2022-11-29T07:11:17.410Z,7.81
2022-11-29T07:13:20.051Z,7.81
2022-11-29T07:15:23.059Z,7.82
2022-11-29T07:17:36.336Z,7.81
2022-11-29T07:19:56.224Z,7.82
2022-11-29T07:22:30.593Z,7.81
2022-11-29T07:24:49.902Z,7.85
2022-11-29T07:27:14.631Z,7.85
2022-11-29T07:29:29.345Z,7.82
2022-11-29T07:32:00.110Z,7.83
2022-11-29T07:34:14.862Z,7.82
2022-11-29T07:36:40.886Z,7.79
2022-11-29T07:38:51.446Z,7.81
2022-11-29T07:41:04.220Z,7.77
2022-11-29T07:43:21.649Z,7.75
2022-11-29T07:45:29.188Z,7.80
2022-11-29T07:47:35.454Z,7.82
2022-11-29T07:49:37.450Z,7.82
2022-11-29T07:51:38.875Z,7.82
2022-11-29T07:53:43.020Z,7.83
2022-11-29T07:55:45.491Z,7.82
2022-11-29T07:57:47.730Z,7.83
2022-11-29T07:59:49.135Z,7.82
2022-11-29T08:01:50.563Z,7.83
2022-11-29T08:03:52.022Z,7.84
2022-11-29T08:05:53.419Z,7.85
2022-11-29T08:07:55.875Z,7.85
2022-11-29T08:09:57.288Z,7.86
2022-11-29T08:11:58.698Z,7.84
2022-11-29T08:14:01.983Z,7.86
2022-11-29T08:16:03.658Z,7.84
2022-11-29T08:18:05.067Z,7.81
2022-11-29T08:20:08.137Z,7.81
2022-11-29T08:22:09.533Z,7.86
2022-11-29T08:24:10.935Z,7.81
2022-11-29T08:26:12.634Z,7.69
2022-11-29T08:28:14.234Z,7.76
2022-11-29T08:30:18.651Z,7.81
2022-11-29T08:32:20.100Z,7.82
2022-11-29T08:34:23.173Z,7.86
2022-11-29T08:36:24.600Z,7.83
2022-11-29T08:38:25.966Z,7.81
2022-11-29T08:40:27.520Z,7.86
2022-11-29T08:42:28.923Z,7.86
2022-11-29T08:44:30.285Z,7.91
2022-11-29T08:46:50.334Z,7.81
2022-11-29T08:48:51.738Z,7.85
2022-11-29T08:50:55.308Z,7.86
2022-11-29T08:53:16.825Z,7.83
2022-11-29T08:55:20.045Z,7.83
2022-11-29T08:59:44.817Z,7.86
2022-11-29T09:01:46.209Z,7.86
2022-11-29T09:03:59.394Z,7.87
2022-11-29T09:06:12.457Z,7.83
2022-11-29T09:08:14.169Z,7.87
2022-11-29T09:10:15.562Z,7.87
2022-11-29T09:12:17.218Z,7.87
2022-11-29T09:14:19.191Z,7.79
2022-11-29T09:16:25.274Z,7.79
2022-11-29T09:18:28.667Z,7.85
2022-11-29T09:20:30.045Z,7.87
2022-11-29T09:22:31.450Z,7.87
2022-11-29T09:24:34.081Z,7.91
2022-11-29T09:26:37.826Z,7.93
2022-11-29T09:28:39.295Z,7.95
2022-11-29T09:30:40.669Z,7.93
2022-11-29T09:32:42.042Z,7.93
2022-11-29T09:34:44.031Z,7.98
2022-11-29T09:36:45.665Z,7.98
2022-11-29T09:38:47.083Z,7.99
2022-11-29T09:40:53.638Z,8.04
2022-11-29T09:43:02.373Z,8.03
2022-11-29T09:45:20.461Z,8.08
2022-11-29T09:47:52.362Z,8.08
2022-11-29T09:50:25.524Z,8.10
2022-11-29T09:52:32.872Z,8.10
2022-11-29T09:54:54.397Z,8.14
2022-11-29T09:56:57.152Z,8.17
2022-11-29T09:59:11.780Z,8.17
2022-11-29T10:01:21.895Z,8.20
2022-11-29T10:03:29.236Z,8.19
2022-11-29T10:05:58.633Z,8.17
2022-11-29T10:08:13.719Z,8.19
2022-11-29T10:10:19.615Z,8.06
2022-11-29T10:12:39.495Z,8.16
2022-11-29T10:14:58.050Z,8.15
2022-11-29T10:17:19.467Z,8.16
2022-11-29T10:19:38.077Z,8.20
2022-11-29T10:21:43.644Z,8.07
2022-11-29T10:23:47.995Z,8.18
2022-11-29T10:25:53.041Z,8.17
2022-11-29T10:27:54.804Z,8.23
2022-11-29T10:29:59.134Z,8.24
2022-11-29T10:32:10.137Z,8.26
2022-11-29T10:34:24.014Z,8.23
2022-11-29T10:36:33.095Z,8.24
2022-11-29T10:38:34.708Z,8.26
2022-11-29T10:40:39.649Z,8.29
2022-11-29T10:42:50.269Z,8.37
2022-11-29T10:44:51.705Z,8.44
2022-11-29T10:46:54.334Z,8.42
2022-11-29T10:48:58.265Z,8.32
2022-11-29T10:51:01.423Z,8.42
2022-11-29T10:53:09.478Z,8.49
2022-11-29T10:55:14.650Z,8.53
2022-11-29T10:57:19.395Z,8.52
2022-11-29T10:59:26.722Z,8.47
2022-11-29T11:01:29.797Z,8.51
2022-11-29T11:03:36.398Z,8.61
2022-11-29T11:05:37.953Z,8.55
2022-11-29T11:07:39.471Z,8.61
2022-11-29T11:09:47.582Z,8.70
2022-11-29T11:11:55.621Z,8.77
2022-11-29T11:14:02.844Z,8.75
2022-11-29T11:16:24.372Z,8.77
2022-11-29T11:18:29.101Z,8.70
2022-11-29T11:20:33.307Z,8.70
2022-11-29T11:23:29.748Z,8.69
2022-11-29T11:25:38.889Z,8.75
2022-11-29T11:27:40.652Z,8.78
2022-11-29T11:29:44.514Z,8.73
2022-11-29T11:31:54.555Z,8.77
2022-11-29T11:33:55.935Z,8.78
2022-11-29T11:36:11.915Z,8.76
2022-11-29T11:38:17.744Z,8.79
2022-11-29T11:40:28.961Z,8.71
2022-11-29T11:42:38.650Z,8.65
2022-11-29T11:44:53.322Z,8.74
2022-11-29T11:46:55.123Z,8.81
2022-11-29T11:48:56.557Z,8.87
2022-11-29T11:51:00.897Z,8.82
2022-11-29T11:53:06.853Z,8.86
2022-11-29T11:55:26.640Z,8.85
2022-11-29T11:57:34.982Z,8.80
2022-11-29T11:59:36.783Z,8.88
2022-11-29T12:01:39.075Z,8.80
2022-11-29T12:03:57.512Z,8.79
2022-11-29T12:06:24.604Z,8.83
2022-11-29T12:08:28.571Z,8.75
2022-11-29T12:10:34.793Z,8.72
2022-11-29T12:12:41.159Z,8.74
2022-11-29T12:14:56.474Z,8.76
2022-11-29T12:17:49.060Z,8.82
2022-11-29T12:20:15.262Z,8.80
2022-11-29T12:22:23.394Z,8.85
2022-11-29T12:24:28.623Z,8.81
2022-11-29T12:26:57.088Z,8.62
2022-11-29T12:28:54.951Z,8.79
2022-11-29T12:31:14.685Z,8.88
2022-11-29T12:33:39.018Z,8.89
2022-11-29T12:36:02.109Z,8.94
2022-11-29T12:38:21.696Z,9.00
2022-11-29T12:40:29.196Z,9.13
2022-11-29T12:43:14.175Z,9.16
2022-11-29T12:45:20.844Z,9.17
2022-11-29T12:47:51.930Z,9.18
2022-11-29T12:50:25.829Z,9.03
2022-11-29T12:52:36.819Z,9.00
2022-11-29T12:54:38.303Z,9.08
2022-11-29T12:56:44.272Z,9.00
2022-11-29T12:59:13.148Z,9.10
2022-11-29T13:01:49.708Z,9.05
2022-11-29T13:04:13.945Z,9.12
2022-11-29T13:06:58.594Z,9.11
2022-11-29T13:09:05.737Z,8.99
2022-11-29T13:12:01.136Z,9.01
2022-11-29T13:14:42.050Z,9.07
2022-11-29T13:16:49.441Z,9.23
2022-11-29T13:19:01.608Z,9.27
2022-11-29T13:21:14.920Z,9.34
2022-11-29T13:24:07.329Z,9.31
2022-11-29T13:26:09.409Z,9.24
2022-11-29T13:28:24.090Z,9.29
2022-11-29T13:30:26.260Z,9.27
2022-11-29T13:32:33.733Z,9.14
2022-11-29T13:34:41.625Z,9.16
2022-11-29T13:37:04.736Z,9.04
2022-11-29T13:39:29.195Z,9.09
2022-11-29T13:41:48.216Z,8.99
2022-11-29T13:43:59.792Z,9.06
2022-11-29T13:46:15.498Z,9.14
2022-11-29T13:48:28.943Z,9.27
2022-11-29T13:50:40.875Z,9.35
2022-11-29T13:52:44.816Z,9.22
2022-11-29T13:54:46.529Z,9.18
2022-11-29T13:56:48.228Z,9.12
2022-11-29T13:58:53.662Z,9.10
2022-11-29T14:01:01.328Z,9.04
2022-11-29T14:03:28.208Z,9.05
2022-11-29T14:05:29.653Z,9.04
2022-11-29T14:07:33.084Z,9.03
2022-11-29T14:09:57.792Z,8.93
2022-11-29T14:12:38.129Z,8.82
2022-11-29T14:15:10.724Z,8.81
2022-11-29T14:17:33.868Z,8.73
2022-11-29T14:19:36.950Z,8.60
2022-11-29T14:22:16.815Z,8.66
2022-11-29T14:24:35.209Z,8.69
2022-11-29T14:26:36.686Z,8.68
2022-11-29T14:28:39.585Z,8.72
2022-11-29T14:30:44.021Z,8.58
2022-11-29T14:33:04.165Z,8.62
2022-11-29T14:35:11.461Z,8.63
2022-11-29T14:37:28.102Z,8.58
2022-11-29T14:39:44.388Z,8.55
2022-11-29T14:41:51.413Z,8.56
2022-11-29T14:44:25.756Z,8.50
2022-11-29T14:46:31.236Z,8.52
2022-11-29T14:48:33.888Z,8.46
2022-11-29T14:50:42.091Z,8.47
2022-11-29T14:52:52.800Z,8.48
2022-11-29T14:54:57.470Z,8.50
2022-11-29T15:00:04.795Z,8.33
2022-11-29T15:02:17.539Z,8.36
2022-11-29T15:04:19.141Z,8.32
2022-11-29T15:06:26.728Z,8.39
2022-11-29T15:08:38.324Z,8.37
2022-11-29T15:10:44.475Z,8.39
2022-11-29T15:12:47.161Z,8.37
2022-11-29T15:15:07.869Z,8.34
2022-11-29T15:17:26.243Z,8.35
2022-11-29T15:19:57.654Z,8.21
2022-11-29T15:22:20.474Z,8.29
2022-11-29T15:24:26.781Z,8.32
2022-11-29T15:26:30.980Z,8.27
2022-11-29T15:28:32.454Z,8.31
2022-11-29T15:30:39.542Z,8.24
2022-11-29T15:32:43.387Z,8.27
2022-11-29T15:34:50.376Z,8.25
2022-11-29T15:36:52.030Z,8.27
2022-11-29T15:38:56.262Z,8.20
2022-11-29T15:40:58.416Z,8.20
2022-11-29T15:43:23.279Z,8.22
2022-11-29T15:45:39.116Z,8.23
2022-11-29T15:47:40.536Z,8.24
2022-11-29T15:49:42.016Z,8.23
2022-11-29T15:51:48.248Z,8.24
2022-11-29T15:54:11.346Z,8.23
2022-11-29T15:56:35.708Z,8.25
2022-11-29T15:58:37.387Z,8.24
2022-11-29T16:00:39.615Z,8.19
2022-11-29T16:02:50.222Z,8.14
2022-11-29T16:04:55.428Z,8.18
2022-11-29T16:06:57.699Z,8.19
2022-11-29T16:09:01.296Z,8.14
2022-11-29T16:11:02.794Z,8.18
2022-11-29T16:13:07.848Z,8.17
2022-11-29T16:15:33.624Z,8.17
2022-11-29T16:17:35.126Z,8.15
2022-11-29T16:19:37.879Z,8.17
2022-11-29T16:21:39.934Z,8.19
2022-11-29T16:23:42.740Z,8.08
2022-11-29T16:26:00.900Z,8.09
2022-11-29T16:28:02.413Z,8.12
2022-11-29T16:30:14.954Z,8.12
2022-11-29T16:32:25.828Z,8.09
2022-11-29T16:34:31.161Z,8.09
2022-11-29T16:36:32.727Z,8.10
2022-11-29T16:38:34.218Z,8.06
2022-11-29T16:40:35.638Z,8.06
2022-11-29T16:42:37.173Z,8.02
2022-11-29T16:44:42.186Z,8.08
2022-11-29T16:46:43.678Z,8.03
2022-11-29T16:48:45.113Z,8.01
2022-11-29T16:51:16.068Z,8.04
2022-11-29T16:53:36.788Z,8.04
2022-11-29T16:55:38.150Z,7.98
2022-11-29T16:57:39.911Z,8.01
2022-11-29T16:59:41.414Z,8.03
2022-11-29T17:01:42.971Z,8.02
2022-11-29T17:03:44.465Z,8.01
2022-11-29T17:05:45.961Z,8.02
2022-11-29T17:07:48.139Z,8.03
2022-11-29T17:09:49.697Z,7.97
2022-11-29T17:11:55.874Z,8.01
2022-11-29T17:13:57.397Z,8.00
2022-11-29T17:16:02.283Z,7.91
2022-11-29T17:18:08.431Z,7.92
2022-11-29T17:20:17.024Z,7.95
2022-11-29T17:22:18.790Z,7.94
2022-11-29T17:24:23.948Z,7.97
2022-11-29T17:26:29.128Z,7.93
2022-11-29T17:28:38.159Z,7.84
2022-11-29T17:31:01.218Z,7.88
2022-11-29T17:34:10.008Z,7.89
2022-11-29T17:36:15.587Z,7.88
2022-11-29T17:38:26.166Z,7.88
2022-11-29T17:40:27.712Z,7.80
2022-11-29T17:42:29.539Z,7.84
2022-11-29T17:44:34.033Z,7.76
2022-11-29T17:46:40.044Z,7.75
2022-11-29T17:48:42.862Z,7.71
2022-11-29T17:50:44.391Z,7.73
2022-11-29T17:53:00.050Z,7.73
2022-11-29T17:59:32.871Z,7.75
2022-11-29T18:01:36.074Z,7.72
2022-11-29T18:03:40.196Z,7.74
2022-11-29T18:05:41.571Z,7.75
2022-11-29T18:07:57.629Z,7.75
2022-11-29T18:30:48.765Z,7.69
2022-11-29T18:32:50.232Z,7.68
2022-11-29T18:34:51.640Z,7.70
2022-11-29T18:36:53.019Z,7.70
2022-11-29T18:39:07.233Z,7.68
2022-11-29T18:41:09.533Z,7.71
2022-11-29T18:43:12.304Z,7.71
2022-11-29T18:45:13.753Z,7.70
2022-11-29T18:47:15.167Z,7.69
2022-11-29T18:49:18.156Z,7.72
2022-11-29T18:51:20.242Z,7.63
2022-11-29T18:53:21.705Z,7.69
2022-11-29T18:55:23.103Z,7.70
2022-11-29T18:57:24.485Z,7.66
2022-11-29T18:59:26.028Z,7.67
2022-11-29T19:01:31.066Z,7.67
2022-11-29T19:04:20.353Z,7.67
2022-11-29T19:06:25.319Z,7.66
2022-11-29T19:08:26.818Z,7.63
2022-11-29T19:10:28.454Z,7.62
2022-11-29T19:12:29.910Z,7.65
2022-11-29T19:14:32.299Z,7.67
2022-11-29T19:16:34.589Z,7.66
2022-11-29T19:18:36.032Z,7.67
2022-11-29T19:20:37.395Z,7.65
2022-11-29T19:22:38.802Z,7.68
2022-11-29T19:24:40.171Z,7.62
2022-11-29T19:26:46.811Z,7.65
2022-11-29T19:28:48.649Z,7.64
2022-11-29T19:42:30.488Z,7.60
2022-11-29T19:44:48.243Z,7.62
2022-11-29T19:46:57.040Z,7.63
2022-11-29T19:48:59.626Z,7.64
2022-11-29T19:51:01.069Z,7.62
2022-11-29T19:53:03.266Z,7.59
2022-11-29T19:55:04.943Z,7.64
2022-11-29T19:57:06.314Z,7.65
2022-11-29T19:59:08.394Z,7.64
2022-11-29T20:01:12.877Z,7.65
2022-11-29T20:03:14.676Z,7.65
2022-11-29T20:05:16.206Z,7.68
2022-11-29T20:07:17.611Z,7.65
2022-11-29T20:09:19.299Z,7.64
2022-11-29T20:11:22.932Z,7.68
2022-11-29T20:13:24.348Z,7.68
2022-11-29T20:15:25.801Z,7.69
2022-11-29T20:17:27.151Z,7.66
2022-11-29T20:19:28.731Z,7.65
2022-11-29T20:21:32.569Z,7.67
2022-11-29T20:23:34.685Z,7.65
2022-11-29T20:25:37.122Z,7.68
2022-11-29T20:27:39.359Z,7.67
2022-11-29T20:29:40.722Z,7.68
2022-11-29T20:31:50.217Z,7.67
2022-11-29T20:33:54.546Z,7.65
2022-11-29T20:36:15.921Z,7.69
2022-11-29T20:38:33.317Z,7.73
2022-11-29T20:40:58.230Z,7.71
2022-11-29T20:43:16.281Z,7.69
2022-11-29T20:45:18.566Z,7.66
2022-11-29T20:47:23.490Z,7.64
2022-11-29T20:49:25.158Z,7.67
2022-11-29T20:51:39.141Z,7.70
2022-11-29T20:53:42.825Z,7.55
2022-11-29T20:55:47.905Z,7.61
2022-11-29T20:57:49.881Z,7.62
2022-11-29T20:59:51.234Z,7.64
2022-11-29T21:01:52.697Z,7.66
2022-11-29T21:03:54.258Z,7.62
2022-11-29T21:05:57.197Z,7.58
2022-11-29T21:07:58.653Z,7.55
2022-11-29T21:10:01.712Z,7.61
2022-11-29T21:12:03.750Z,7.55
2022-11-29T21:14:07.909Z,7.59
2022-11-29T21:16:12.015Z,7.61
2022-11-29T21:18:25.386Z,7.58
2022-11-29T21:20:27.724Z,7.61
2022-11-29T21:22:48.275Z,7.64
2022-11-29T21:25:34.245Z,7.62
2022-11-29T21:27:35.979Z,7.56
2022-11-29T21:29:37.760Z,7.62
2022-11-29T21:31:39.536Z,7.58
2022-11-29T21:33:41.276Z,7.57
2022-11-29T21:35:42.754Z,7.57
2022-11-29T21:37:45.476Z,7.59
2022-11-29T21:39:48.888Z,7.51
2022-11-29T21:41:50.280Z,7.54
2022-11-29T21:44:06.219Z,7.59
2022-11-29T21:46:08.949Z,7.59
2022-11-29T21:48:30.502Z,7.53
2022-11-29T21:50:31.959Z,7.54
2022-11-29T21:52:33.429Z,7.53
2022-11-29T21:54:34.898Z,7.57
2022-11-29T21:56:36.301Z,7.58
2022-11-29T21:58:38.860Z,7.55
2022-11-29T22:00:40.262Z,7.60
2022-11-29T22:02:41.701Z,7.56
2022-11-29T22:04:43.248Z,7.58
2022-11-29T22:06:44.673Z,7.59
2022-11-29T22:08:47.227Z,7.59
2022-11-29T22:10:48.703Z,7.61
2022-11-29T22:12:52.452Z,7.60
2022-11-29T22:14:54.223Z,7.61
2022-11-29T22:16:58.008Z,7.55
2022-11-29T22:18:59.391Z,7.58
2022-11-29T22:21:07.088Z,7.57
2022-11-29T22:23:09.618Z,7.54
2022-11-29T22:25:11.048Z,7.54
2022-11-29T22:27:12.467Z,7.51
2022-11-29T22:29:14.786Z,7.49
2022-11-29T22:31:16.349Z,7.54
2022-11-29T22:33:17.781Z,7.58
2022-11-29T22:35:19.154Z,7.58
2022-11-29T22:37:20.537Z,7.58
2022-11-29T22:39:22.264Z,7.55
2022-11-29T22:41:23.669Z,7.54
2022-11-29T22:43:25.011Z,7.56
2022-11-29T22:45:26.588Z,7.55
2022-11-29T22:47:28.009Z,7.57
2022-11-29T22:49:29.944Z,7.59
2022-11-29T22:51:33.936Z,7.53
2022-11-29T22:53:36.720Z,7.53
2022-11-29T22:55:38.094Z,7.51
2022-11-29T22:57:39.473Z,7.51
2022-11-29T22:59:40.833Z,7.50
2022-11-29T23:01:42.533Z,7.51
2022-11-29T23:03:48.056Z,7.50
2022-11-29T23:05:49.436Z,7.51
2022-11-29T23:07:54.888Z,7.53
2022-11-29T23:09:56.370Z,7.51
2022-11-29T23:11:57.797Z,7.45
2022-11-29T23:13:59.138Z,7.44
2022-11-29T23:16:01.433Z,7.46
2022-11-29T23:18:02.948Z,7.42
2022-11-29T23:20:04.980Z,7.48
2022-11-29T23:22:06.389Z,7.50
2022-11-29T23:24:07.945Z,7.49
2022-11-29T23:26:17.517Z,7.49
2022-11-29T23:28:18.932Z,7.48
2022-11-29T23:30:20.327Z,7.49
2022-11-29T23:32:21.715Z,7.45
2022-11-29T23:34:23.183Z,7.50
2022-11-29T23:36:24.677Z,7.48
2022-11-29T23:38:26.170Z,7.52
2022-11-29T23:40:27.613Z,7.52
2022-11-29T23:42:29.018Z,7.47
2022-11-29T23:44:30.447Z,7.47
2022-11-29T23:46:31.983Z,7.50
2022-11-29T23:48:33.399Z,7.50
2022-11-29T23:50:34.967Z,7.49
2022-11-29T23:52:36.545Z,7.46
2022-11-29T23:54:37.943Z,7.49
2022-11-29T23:56:39.326Z,7.46
2022-11-29T23:58:41.302Z,7.48
